Delavan, Illinois
Current Conditions -  °F | °C
As of 1:55 PM on Saturday 25 Oct 2014 (Local Time) from KAAA Reporting Station
Clear Clear  
Wind Chill: 76°   Ceiling: Unl
Heat Index: 78°   Visibility: 10mi
Dew Point: 48°   Wind: 7mph
Humidity: 37%   Direction: 300°WNW
Pressure: 29.97"   Gusts: NA
Location:  40.37°N, 89.55°W
Report Text: KAAA 251855Z AUTO 30006KT 10SM CLR 25/09 A2997 RMK AO2 T02460089
Loading
Personal Weather Stations






























Interactive Weather Map
Tropical Storm Tracking
New forecast layout! Learn more

10-Day Weather Forecast

Advertisements
Track Severe Weather on mobile